sensor_id;sensor_type;location;lat;lon;timestamp;P1;durP1;ratioP1;P2;durP2;ratioP2
28587;SDS011;15787;49.662;10.162;2022-08-21T00:00:36;8.75;;;5.07;;
28587;SDS011;15787;49.662;10.162;2022-08-21T00:03:10;11.48;;;5.57;;
28587;SDS011;15787;49.662;10.162;2022-08-21T00:05:41;10.10;;;5.93;;
28587;SDS011;15787;49.662;10.162;2022-08-21T00:08:12;7.97;;;5.38;;
28587;SDS011;15787;49.662;10.162;2022-08-21T00:10:41;6.88;;;4.70;;
28587;SDS011;15787;49.662;10.162;2022-08-21T00:13:11;7.57;;;5.22;;
28587;SDS011;15787;49.662;10.162;2022-08-21T00:15:44;8.13;;;4.70;;
28587;SDS011;15787;49.662;10.162;2022-08-21T00:18:12;8.10;;;5.50;;
28587;SDS011;15787;49.662;10.162;2022-08-21T00:20:41;6.30;;;5.05;;
28587;SDS011;15787;49.662;10.162;2022-08-21T00:23:09;6.28;;;4.90;;
28587;SDS011;15787;49.662;10.162;2022-08-21T00:25:40;6.97;;;5.05;;
28587;SDS011;15787;49.662;10.162;2022-08-21T00:28:09;8.07;;;5.60;;
28587;SDS011;15787;49.662;10.162;2022-08-21T00:30:38;8.07;;;5.75;;
28587;SDS011;15787;49.662;10.162;2022-08-21T00:33:07;9.52;;;5.57;;
28587;SDS011;15787;49.662;10.162;2022-08-21T00:35:36;9.15;;;5.85;;
28587;SDS011;15787;49.662;10.162;2022-08-21T00:38:07;9.82;;;5.60;;
28587;SDS011;15787;49.662;10.162;2022-08-21T00:40:38;8.38;;;5.15;;
28587;SDS011;15787;49.662;10.162;2022-08-21T00:43:10;8.73;;;4.53;;
28587;SDS011;15787;49.662;10.162;2022-08-21T00:45:40;7.60;;;5.30;;
28587;SDS011;15787;49.662;10.162;2022-08-21T00:48:08;10.50;;;5.82;;
28587;SDS011;15787;49.662;10.162;2022-08-21T00:50:37;7.63;;;5.35;;
28587;SDS011;15787;49.662;10.162;2022-08-21T00:53:09;7.70;;;4.85;;
28587;SDS011;15787;49.662;10.162;2022-08-21T00:55:39;8.43;;;5.85;;
28587;SDS011;15787;49.662;10.162;2022-08-21T00:58:09;8.60;;;5.28;;
28587;SDS011;15787;49.662;10.162;2022-08-21T01:00:43;6.72;;;4.72;;
28587;SDS011;15787;49.662;10.162;2022-08-21T01:03:13;8.23;;;5.25;;
28587;SDS011;15787;49.662;10.162;2022-08-21T01:05:48;8.73;;;5.15;;
28587;SDS011;15787;49.662;10.162;2022-08-21T01:08:17;16.42;;;6.75;;
28587;SDS011;15787;49.662;10.162;2022-08-21T01:10:47;16.65;;;5.53;;
28587;SDS011;15787;49.662;10.162;2022-08-21T01:13:24;9.70;;;6.07;;
28587;SDS011;15787;49.662;10.162;2022-08-21T01:15:54;7.10;;;5.63;;
28587;SDS011;15787;49.662;10.162;2022-08-21T01:18:25;6.25;;;4.57;;
28587;SDS011;15787;49.662;10.162;2022-08-21T01:21:01;9.13;;;5.22;;
28587;SDS011;15787;49.662;10.162;2022-08-21T01:23:30;8.85;;;5.10;;
28587;SDS011;15787;49.662;10.162;2022-08-21T01:25:59;9.68;;;5.78;;
28587;SDS011;15787;49.662;10.162;2022-08-21T01:28:27;8.00;;;5.22;;
28587;SDS011;15787;49.662;10.162;2022-08-21T01:30:58;12.27;;;5.63;;
28587;SDS011;15787;49.662;10.162;2022-08-21T01:33:29;13.63;;;6.68;;
28587;SDS011;15787;49.662;10.162;2022-08-21T01:35:57;8.50;;;6.03;;
28587;SDS011;15787;49.662;10.162;2022-08-21T01:38:26;8.82;;;5.00;;
28587;SDS011;15787;49.662;10.162;2022-08-21T01:40:56;10.07;;;5.18;;
28587;SDS011;15787;49.662;10.162;2022-08-21T01:43:24;8.52;;;5.65;;
28587;SDS011;15787;49.662;10.162;2022-08-21T01:46:04;9.27;;;5.82;;
28587;SDS011;15787;49.662;10.162;2022-08-21T01:48:33;10.70;;;5.60;;
28587;SDS011;15787;49.662;10.162;2022-08-21T01:51:01;6.95;;;5.72;;
28587;SDS011;15787;49.662;10.162;2022-08-21T01:53:30;9.00;;;4.95;;
28587;SDS011;15787;49.662;10.162;2022-08-21T01:56:00;8.10;;;5.30;;
28587;SDS011;15787;49.662;10.162;2022-08-21T01:58:28;7.82;;;5.80;;
28587;SDS011;15787;49.662;10.162;2022-08-21T02:00:56;8.85;;;5.53;;
28587;SDS011;15787;49.662;10.162;2022-08-21T02:03:24;10.70;;;5.55;;
28587;SDS011;15787;49.662;10.162;2022-08-21T02:06:01;7.70;;;5.35;;
28587;SDS011;15787;49.662;10.162;2022-08-21T02:08:31;6.13;;;5.18;;
28587;SDS011;15787;49.662;10.162;2022-08-21T02:11:00;10.23;;;5.30;;
28587;SDS011;15787;49.662;10.162;2022-08-21T02:13:28;8.32;;;5.35;;
28587;SDS011;15787;49.662;10.162;2022-08-21T02:15:56;7.25;;;5.30;;
28587;SDS011;15787;49.662;10.162;2022-08-21T02:18:24;10.18;;;6.50;;
28587;SDS011;15787;49.662;10.162;2022-08-21T02:20:52;6.88;;;5.13;;
28587;SDS011;15787;49.662;10.162;2022-08-21T02:23:22;8.15;;;5.45;;
28587;SDS011;15787;49.662;10.162;2022-08-21T02:25:54;9.02;;;5.13;;
28587;SDS011;15787;49.662;10.162;2022-08-21T02:28:22;9.02;;;5.82;;
28587;SDS011;15787;49.662;10.162;2022-08-21T02:30:53;8.70;;;5.70;;
28587;SDS011;15787;49.662;10.162;2022-08-21T02:33:22;8.18;;;4.88;;
28587;SDS011;15787;49.662;10.162;2022-08-21T02:35:51;9.00;;;5.32;;
28587;SDS011;15787;49.662;10.162;2022-08-21T02:38:20;10.85;;;4.90;;
28587;SDS011;15787;49.662;10.162;2022-08-21T02:40:51;11.98;;;5.40;;
28587;SDS011;15787;49.662;10.162;2022-08-21T02:43:22;13.10;;;5.47;;
28587;SDS011;15787;49.662;10.162;2022-08-21T02:45:52;7.78;;;4.80;;
28587;SDS011;15787;49.662;10.162;2022-08-21T02:48:21;6.20;;;5.03;;
28587;SDS011;15787;49.662;10.162;2022-08-21T02:50:52;9.68;;;5.10;;
28587;SDS011;15787;49.662;10.162;2022-08-21T02:53:22;7.68;;;4.53;;
28587;SDS011;15787;49.662;10.162;2022-08-21T02:55:51;7.47;;;5.25;;
28587;SDS011;15787;49.662;10.162;2022-08-21T02:58:23;6.20;;;4.15;;
28587;SDS011;15787;49.662;10.162;2022-08-21T03:00:53;7.38;;;4.72;;
28587;SDS011;15787;49.662;10.162;2022-08-21T03:03:21;8.77;;;4.78;;
28587;SDS011;15787;49.662;10.162;2022-08-21T03:05:50;7.38;;;5.13;;
28587;SDS011;15787;49.662;10.162;2022-08-21T03:08:19;8.77;;;5.97;;
28587;SDS011;15787;49.662;10.162;2022-08-21T03:10:50;7.43;;;4.75;;
28587;SDS011;15787;49.662;10.162;2022-08-21T03:13:19;9.18;;;5.05;;
28587;SDS011;15787;49.662;10.162;2022-08-21T03:15:50;8.75;;;5.28;;
28587;SDS011;15787;49.662;10.162;2022-08-21T03:18:18;9.32;;;5.32;;
28587;SDS011;15787;49.662;10.162;2022-08-21T03:20:46;7.32;;;5.28;;
28587;SDS011;15787;49.662;10.162;2022-08-21T03:23:15;7.68;;;5.05;;
28587;SDS011;15787;49.662;10.162;2022-08-21T03:25:45;6.57;;;4.72;;
28587;SDS011;15787;49.662;10.162;2022-08-21T03:28:15;6.82;;;5.30;;
28587;SDS011;15787;49.662;10.162;2022-08-21T03:30:46;9.10;;;5.25;;
28587;SDS011;15787;49.662;10.162;2022-08-21T03:33:16;13.40;;;5.32;;
28587;SDS011;15787;49.662;10.162;2022-08-21T03:35:47;7.10;;;4.93;;
28587;SDS011;15787;49.662;10.162;2022-08-21T03:38:19;8.75;;;4.88;;
28587;SDS011;15787;49.662;10.162;2022-08-21T03:40:52;6.55;;;5.00;;
28587;SDS011;15787;49.662;10.162;2022-08-21T03:43:20;6.82;;;4.93;;
28587;SDS011;15787;49.662;10.162;2022-08-21T03:45:49;8.80;;;5.30;;
28587;SDS011;15787;49.662;10.162;2022-08-21T03:48:18;6.87;;;4.80;;
28587;SDS011;15787;49.662;10.162;2022-08-21T03:50:47;8.40;;;5.45;;
28587;SDS011;15787;49.662;10.162;2022-08-21T03:53:16;9.00;;;4.80;;
28587;SDS011;15787;49.662;10.162;2022-08-21T03:55:44;6.65;;;4.63;;
28587;SDS011;15787;49.662;10.162;2022-08-21T03:58:14;7.88;;;4.97;;
28587;SDS011;15787;49.662;10.162;2022-08-21T04:00:43;8.90;;;5.13;;
28587;SDS011;15787;49.662;10.162;2022-08-21T04:03:13;8.45;;;5.15;;
28587;SDS011;15787;49.662;10.162;2022-08-21T04:05:41;9.95;;;5.63;;
28587;SDS011;15787;49.662;10.162;2022-08-21T04:08:12;9.77;;;5.45;;
28587;SDS011;15787;49.662;10.162;2022-08-21T04:10:41;9.50;;;5.43;;
28587;SDS011;15787;49.662;10.162;2022-08-21T04:13:11;8.75;;;5.15;;
28587;SDS011;15787;49.662;10.162;2022-08-21T04:15:39;9.32;;;5.47;;
28587;SDS011;15787;49.662;10.162;2022-08-21T04:18:07;7.43;;;5.05;;
28587;SDS011;15787;49.662;10.162;2022-08-21T04:20:37;7.07;;;5.30;;
28587;SDS011;15787;49.662;10.162;2022-08-21T04:23:10;7.60;;;5.20;;
28587;SDS011;15787;49.662;10.162;2022-08-21T04:25:49;7.95;;;5.40;;
28587;SDS011;15787;49.662;10.162;2022-08-21T04:28:18;7.55;;;5.15;;
28587;SDS011;15787;49.662;10.162;2022-08-21T04:30:48;11.18;;;6.20;;
28587;SDS011;15787;49.662;10.162;2022-08-21T04:33:17;9.13;;;5.20;;
28587;SDS011;15787;49.662;10.162;2022-08-21T04:35:47;7.97;;;5.10;;
28587;SDS011;15787;49.662;10.162;2022-08-21T04:38:16;8.90;;;5.47;;
28587;SDS011;15787;49.662;10.162;2022-08-21T04:40:45;7.63;;;5.55;;
28587;SDS011;15787;49.662;10.162;2022-08-21T04:43:13;6.95;;;5.28;;
28587;SDS011;15787;49.662;10.162;2022-08-21T04:45:44;8.25;;;5.45;;
28587;SDS011;15787;49.662;10.162;2022-08-21T04:48:14;10.48;;;5.95;;
28587;SDS011;15787;49.662;10.162;2022-08-21T04:50:45;10.45;;;6.93;;
28587;SDS011;15787;49.662;10.162;2022-08-21T04:53:20;9.60;;;6.20;;
28587;SDS011;15787;49.662;10.162;2022-08-21T04:55:52;9.48;;;6.68;;
28587;SDS011;15787;49.662;10.162;2022-08-21T05:00:53;8.68;;;6.57;;
28587;SDS011;15787;49.662;10.162;2022-08-21T05:03:23;8.75;;;6.20;;
28587;SDS011;15787;49.662;10.162;2022-08-21T05:05:53;7.80;;;6.30;;
28587;SDS011;15787;49.662;10.162;2022-08-21T05:08:22;11.57;;;6.80;;
28587;SDS011;15787;49.662;10.162;2022-08-21T05:10:53;9.90;;;6.95;;
28587;SDS011;15787;49.662;10.162;2022-08-21T05:13:26;8.23;;;6.72;;
28587;SDS011;15787;49.662;10.162;2022-08-21T05:15:54;11.18;;;6.10;;
28587;SDS011;15787;49.662;10.162;2022-08-21T05:18:22;9.18;;;6.90;;
28587;SDS011;15787;49.662;10.162;2022-08-21T05:20:50;10.90;;;6.85;;
28587;SDS011;15787;49.662;10.162;2022-08-21T05:23:19;7.95;;;6.43;;
28587;SDS011;15787;49.662;10.162;2022-08-21T05:25:47;9.13;;;6.60;;
28587;SDS011;15787;49.662;10.162;2022-08-21T05:28:15;8.90;;;6.80;;
28587;SDS011;15787;49.662;10.162;2022-08-21T05:30:45;10.00;;;6.97;;
28587;SDS011;15787;49.662;10.162;2022-08-21T05:33:13;11.13;;;7.50;;
28587;SDS011;15787;49.662;10.162;2022-08-21T05:35:41;10.07;;;6.93;;
28587;SDS011;15787;49.662;10.162;2022-08-21T05:38:09;9.65;;;7.25;;
28587;SDS011;15787;49.662;10.162;2022-08-21T05:40:45;10.80;;;7.80;;
28587;SDS011;15787;49.662;10.162;2022-08-21T05:43:13;9.50;;;7.47;;
28587;SDS011;15787;49.662;10.162;2022-08-21T05:45:42;9.50;;;7.28;;
28587;SDS011;15787;49.662;10.162;2022-08-21T05:48:11;11.27;;;7.30;;
28587;SDS011;15787;49.662;10.162;2022-08-21T05:50:41;9.15;;;7.13;;
28587;SDS011;15787;49.662;10.162;2022-08-21T05:53:10;9.18;;;6.97;;
28587;SDS011;15787;49.662;10.162;2022-08-21T05:55:39;8.82;;;7.07;;
28587;SDS011;15787;49.662;10.162;2022-08-21T05:58:14;10.88;;;7.68;;
28587;SDS011;15787;49.662;10.162;2022-08-21T06:00:43;10.88;;;7.90;;
28587;SDS011;15787;49.662;10.162;2022-08-21T06:03:14;11.43;;;8.40;;
28587;SDS011;15787;49.662;10.162;2022-08-21T06:05:44;14.55;;;8.20;;
28587;SDS011;15787;49.662;10.162;2022-08-21T06:08:12;10.35;;;7.30;;
28587;SDS011;15787;49.662;10.162;2022-08-21T06:10:40;13.80;;;8.45;;
28587;SDS011;15787;49.662;10.162;2022-08-21T06:13:09;13.60;;;7.95;;
28587;SDS011;15787;49.662;10.162;2022-08-21T06:15:39;12.93;;;8.57;;
28587;SDS011;15787;49.662;10.162;2022-08-21T06:18:07;15.07;;;10.23;;
28587;SDS011;15787;49.662;10.162;2022-08-21T06:20:36;13.13;;;8.63;;
28587;SDS011;15787;49.662;10.162;2022-08-21T06:23:04;14.38;;;8.55;;
28587;SDS011;15787;49.662;10.162;2022-08-21T06:25:32;12.00;;;8.32;;
28587;SDS011;15787;49.662;10.162;2022-08-21T06:28:01;12.45;;;8.55;;
28587;SDS011;15787;49.662;10.162;2022-08-21T06:30:30;15.15;;;8.50;;
28587;SDS011;15787;49.662;10.162;2022-08-21T06:32:59;14.23;;;8.32;;
28587;SDS011;15787;49.662;10.162;2022-08-21T06:35:28;10.55;;;7.45;;
28587;SDS011;15787;49.662;10.162;2022-08-21T06:37:56;11.15;;;7.70;;
28587;SDS011;15787;49.662;10.162;2022-08-21T06:40:25;10.65;;;8.57;;
28587;SDS011;15787;49.662;10.162;2022-08-21T06:45:24;11.07;;;7.90;;
28587;SDS011;15787;49.662;10.162;2022-08-21T06:47:59;9.38;;;7.30;;
28587;SDS011;15787;49.662;10.162;2022-08-21T06:50:27;10.35;;;7.95;;
28587;SDS011;15787;49.662;10.162;2022-08-21T06:53:01;11.07;;;8.13;;
28587;SDS011;15787;49.662;10.162;2022-08-21T06:55:30;11.48;;;7.63;;
28587;SDS011;15787;49.662;10.162;2022-08-21T06:57:59;15.85;;;8.45;;
28587;SDS011;15787;49.662;10.162;2022-08-21T07:00:27;11.20;;;7.05;;
28587;SDS011;15787;49.662;10.162;2022-08-21T07:02:56;10.80;;;7.50;;
28587;SDS011;15787;49.662;10.162;2022-08-21T07:05:26;12.95;;;7.43;;
28587;SDS011;15787;49.662;10.162;2022-08-21T07:07:55;9.77;;;7.53;;
28587;SDS011;15787;49.662;10.162;2022-08-21T07:10:24;11.25;;;7.15;;
28587;SDS011;15787;49.662;10.162;2022-08-21T07:12:52;11.48;;;6.80;;
28587;SDS011;15787;49.662;10.162;2022-08-21T07:15:26;12.27;;;6.22;;
28587;SDS011;15787;49.662;10.162;2022-08-21T07:17:56;9.15;;;6.78;;
28587;SDS011;15787;49.662;10.162;2022-08-21T07:20:24;9.82;;;7.13;;
28587;SDS011;15787;49.662;10.162;2022-08-21T07:22:54;11.15;;;7.10;;
28587;SDS011;15787;49.662;10.162;2022-08-21T07:25:24;8.52;;;6.93;;
28587;SDS011;15787;49.662;10.162;2022-08-21T07:27:52;9.73;;;6.88;;
28587;SDS011;15787;49.662;10.162;2022-08-21T07:30:20;10.15;;;6.93;;
28587;SDS011;15787;49.662;10.162;2022-08-21T07:32:48;11.13;;;6.20;;
28587;SDS011;15787;49.662;10.162;2022-08-21T07:35:17;9.55;;;6.43;;
28587;SDS011;15787;49.662;10.162;2022-08-21T07:37:47;8.40;;;6.60;;
28587;SDS011;15787;49.662;10.162;2022-08-21T07:40:16;10.73;;;6.82;;
28587;SDS011;15787;49.662;10.162;2022-08-21T07:42:45;9.63;;;6.07;;
28587;SDS011;15787;49.662;10.162;2022-08-21T07:45:16;9.20;;;6.18;;
28587;SDS011;15787;49.662;10.162;2022-08-21T07:47:47;7.25;;;5.78;;
28587;SDS011;15787;49.662;10.162;2022-08-21T07:50:22;9.18;;;6.25;;
28587;SDS011;15787;49.662;10.162;2022-08-21T07:52:52;7.18;;;5.78;;
28587;SDS011;15787;49.662;10.162;2022-08-21T07:55:20;8.75;;;6.30;;
28587;SDS011;15787;49.662;10.162;2022-08-21T07:57:49;7.22;;;5.70;;
28587;SDS011;15787;49.662;10.162;2022-08-21T08:00:18;8.95;;;6.15;;
28587;SDS011;15787;49.662;10.162;2022-08-21T08:02:48;7.95;;;5.30;;
28587;SDS011;15787;49.662;10.162;2022-08-21T08:05:19;7.78;;;5.90;;
28587;SDS011;15787;49.662;10.162;2022-08-21T08:07:49;8.50;;;5.50;;
28587;SDS011;15787;49.662;10.162;2022-08-21T08:10:19;5.93;;;4.60;;
28587;SDS011;15787;49.662;10.162;2022-08-21T08:12:47;8.35;;;5.22;;
28587;SDS011;15787;49.662;10.162;2022-08-21T08:15:18;6.85;;;4.63;;
28587;SDS011;15787;49.662;10.162;2022-08-21T08:17:48;6.40;;;4.50;;
28587;SDS011;15787;49.662;10.162;2022-08-21T08:20:16;6.65;;;4.55;;
28587;SDS011;15787;49.662;10.162;2022-08-21T08:22:46;6.35;;;4.78;;
28587;SDS011;15787;49.662;10.162;2022-08-21T08:25:16;8.45;;;4.20;;
28587;SDS011;15787;49.662;10.162;2022-08-21T08:27:47;6.00;;;4.07;;
28587;SDS011;15787;49.662;10.162;2022-08-21T08:30:15;12.02;;;4.70;;
28587;SDS011;15787;49.662;10.162;2022-08-21T08:32:46;7.43;;;4.20;;
28587;SDS011;15787;49.662;10.162;2022-08-21T08:35:14;5.55;;;4.03;;
28587;SDS011;15787;49.662;10.162;2022-08-21T08:37:47;5.63;;;4.32;;
28587;SDS011;15787;49.662;10.162;2022-08-21T08:40:20;7.20;;;4.43;;
28587;SDS011;15787;49.662;10.162;2022-08-21T08:42:56;5.45;;;4.10;;
28587;SDS011;15787;49.662;10.162;2022-08-21T08:45:25;5.90;;;4.47;;
28587;SDS011;15787;49.662;10.162;2022-08-21T08:47:55;8.30;;;4.43;;
28587;SDS011;15787;49.662;10.162;2022-08-21T08:50:30;6.20;;;4.07;;
28587;SDS011;15787;49.662;10.162;2022-08-21T08:53:06;5.32;;;3.75;;
28587;SDS011;15787;49.662;10.162;2022-08-21T08:55:40;5.53;;;3.50;;
28587;SDS011;15787;49.662;10.162;2022-08-21T08:58:12;4.50;;;3.65;;
28587;SDS011;15787;49.662;10.162;2022-08-21T09:00:47;4.70;;;2.92;;
28587;SDS011;15787;49.662;10.162;2022-08-21T09:03:17;4.22;;;3.10;;
28587;SDS011;15787;49.662;10.162;2022-08-21T09:05:46;6.32;;;2.80;;
28587;SDS011;15787;49.662;10.162;2022-08-21T09:08:23;3.55;;;2.58;;
28587;SDS011;15787;49.662;10.162;2022-08-21T09:11:07;4.43;;;2.72;;
28587;SDS011;15787;49.662;10.162;2022-08-21T09:13:43;3.78;;;2.83;;
28587;SDS011;15787;49.662;10.162;2022-08-21T09:16:24;5.57;;;3.33;;
28587;SDS011;15787;49.662;10.162;2022-08-21T09:19:09;5.53;;;3.45;;
28587;SDS011;15787;49.662;10.162;2022-08-21T09:21:52;5.35;;;2.90;;
28587;SDS011;15787;49.662;10.162;2022-08-21T09:24:35;3.95;;;3.22;;
28587;SDS011;15787;49.662;10.162;2022-08-21T09:27:17;6.95;;;3.63;;
28587;SDS011;15787;49.662;10.162;2022-08-21T09:29:50;6.80;;;4.13;;
28587;SDS011;15787;49.662;10.162;2022-08-21T09:32:21;5.15;;;3.67;;
28587;SDS011;15787;49.662;10.162;2022-08-21T09:35:04;5.05;;;3.28;;
28587;SDS011;15787;49.662;10.162;2022-08-21T09:37:44;5.20;;;3.60;;
28587;SDS011;15787;49.662;10.162;2022-08-21T09:40:18;4.07;;;3.05;;
28587;SDS011;15787;49.662;10.162;2022-08-21T09:42:54;4.43;;;3.70;;
28587;SDS011;15787;49.662;10.162;2022-08-21T09:45:25;4.50;;;3.53;;
28587;SDS011;15787;49.662;10.162;2022-08-21T09:48:07;4.90;;;3.58;;
28587;SDS011;15787;49.662;10.162;2022-08-21T09:50:37;3.88;;;2.78;;
28587;SDS011;15787;49.662;10.162;2022-08-21T09:53:13;5.93;;;3.60;;
28587;SDS011;15787;49.662;10.162;2022-08-21T09:55:49;4.90;;;3.05;;
28587;SDS011;15787;49.662;10.162;2022-08-21T09:58:39;5.68;;;3.50;;
28587;SDS011;15787;49.662;10.162;2022-08-21T10:01:14;5.03;;;4.03;;
28587;SDS011;15787;49.662;10.162;2022-08-21T10:03:43;5.65;;;4.25;;
28587;SDS011;15787;49.662;10.162;2022-08-21T10:06:20;5.32;;;3.67;;
28587;SDS011;15787;49.662;10.162;2022-08-21T10:08:51;5.53;;;3.40;;
28587;SDS011;15787;49.662;10.162;2022-08-21T10:11:30;5.03;;;3.83;;
28587;SDS011;15787;49.662;10.162;2022-08-21T10:14:01;6.30;;;3.30;;
28587;SDS011;15787;49.662;10.162;2022-08-21T10:16:41;3.60;;;2.50;;
28587;SDS011;15787;49.662;10.162;2022-08-21T10:19:22;5.47;;;3.05;;
28587;SDS011;15787;49.662;10.162;2022-08-21T10:21:59;5.88;;;2.75;;
28587;SDS011;15787;49.662;10.162;2022-08-21T10:24:36;4.57;;;2.45;;
28587;SDS011;15787;49.662;10.162;2022-08-21T10:27:14;6.13;;;2.60;;
28587;SDS011;15787;49.662;10.162;2022-08-21T10:29:47;10.82;;;2.67;;
28587;SDS011;15787;49.662;10.162;2022-08-21T10:32:33;7.63;;;2.40;;
28587;SDS011;15787;49.662;10.162;2022-08-21T10:35:10;3.67;;;2.22;;
28587;SDS011;15787;49.662;10.162;2022-08-21T10:37:48;4.90;;;2.20;;
28587;SDS011;15787;49.662;10.162;2022-08-21T10:40:31;4.00;;;2.27;;
28587;SDS011;15787;49.662;10.162;2022-08-21T10:43:18;4.13;;;2.22;;
28587;SDS011;15787;49.662;10.162;2022-08-21T10:45:56;5.55;;;2.35;;
28587;SDS011;15787;49.662;10.162;2022-08-21T10:48:36;5.15;;;1.70;;
28587;SDS011;15787;49.662;10.162;2022-08-21T10:53:58;5.00;;;1.70;;
28587;SDS011;15787;49.662;10.162;2022-08-21T10:56:33;3.60;;;2.35;;
28587;SDS011;15787;49.662;10.162;2022-08-21T10:59:15;7.07;;;2.58;;
28587;SDS011;15787;49.662;10.162;2022-08-21T11:01:54;4.03;;;2.15;;
28587;SDS011;15787;49.662;10.162;2022-08-21T11:04:30;4.45;;;1.80;;
28587;SDS011;15787;49.662;10.162;2022-08-21T11:07:16;2.28;;;1.70;;
28587;SDS011;15787;49.662;10.162;2022-08-21T11:09:50;4.07;;;1.75;;
28587;SDS011;15787;49.662;10.162;2022-08-21T11:12:23;5.05;;;2.15;;
28587;SDS011;15787;49.662;10.162;2022-08-21T11:14:56;3.88;;;1.90;;
28587;SDS011;15787;49.662;10.162;2022-08-21T11:17:30;4.75;;;2.15;;
28587;SDS011;15787;49.662;10.162;2022-08-21T11:20:06;6.00;;;2.00;;
28587;SDS011;15787;49.662;10.162;2022-08-21T11:22:41;4.88;;;1.75;;
28587;SDS011;15787;49.662;10.162;2022-08-21T11:25:23;3.75;;;1.92;;
28587;SDS011;15787;49.662;10.162;2022-08-21T11:28:04;2.72;;;1.73;;
28587;SDS011;15787;49.662;10.162;2022-08-21T11:30:43;2.92;;;1.90;;
28587;SDS011;15787;49.662;10.162;2022-08-21T11:33:26;3.08;;;1.58;;
28587;SDS011;15787;49.662;10.162;2022-08-21T11:36:06;3.75;;;1.80;;
28587;SDS011;15787;49.662;10.162;2022-08-21T11:38:44;3.67;;;1.70;;
28587;SDS011;15787;49.662;10.162;2022-08-21T11:41:19;5.60;;;2.15;;
28587;SDS011;15787;49.662;10.162;2022-08-21T11:43:53;2.83;;;1.80;;
28587;SDS011;15787;49.662;10.162;2022-08-21T11:46:31;3.00;;;1.55;;
28587;SDS011;15787;49.662;10.162;2022-08-21T11:49:12;3.83;;;1.90;;
28587;SDS011;15787;49.662;10.162;2022-08-21T11:52:01;3.33;;;1.88;;
28587;SDS011;15787;49.662;10.162;2022-08-21T11:57:13;4.10;;;1.83;;
28587;SDS011;15787;49.662;10.162;2022-08-21T11:59:45;5.80;;;2.20;;
28587;SDS011;15787;49.662;10.162;2022-08-21T12:02:18;3.03;;;1.73;;
28587;SDS011;15787;49.662;10.162;2022-08-21T12:04:52;2.75;;;1.60;;
28587;SDS011;15787;49.662;10.162;2022-08-21T12:07:33;4.70;;;1.92;;
28587;SDS011;15787;49.662;10.162;2022-08-21T12:10:04;4.60;;;1.85;;
28587;SDS011;15787;49.662;10.162;2022-08-21T12:12:34;4.80;;;1.60;;
28587;SDS011;15787;49.662;10.162;2022-08-21T12:15:07;8.52;;;2.97;;
28587;SDS011;15787;49.662;10.162;2022-08-21T12:17:51;2.40;;;1.58;;
28587;SDS011;15787;49.662;10.162;2022-08-21T12:20:33;2.88;;;1.80;;
28587;SDS011;15787;49.662;10.162;2022-08-21T12:23:18;3.58;;;1.90;;
28587;SDS011;15787;49.662;10.162;2022-08-21T12:28:50;3.25;;;1.80;;
28587;SDS011;15787;49.662;10.162;2022-08-21T12:31:31;3.28;;;1.90;;
28587;SDS011;15787;49.662;10.162;2022-08-21T12:34:01;3.60;;;2.00;;
28587;SDS011;15787;49.662;10.162;2022-08-21T12:36:38;2.03;;;1.65;;
28587;SDS011;15787;49.662;10.162;2022-08-21T12:39:14;5.05;;;2.47;;
28587;SDS011;15787;49.662;10.162;2022-08-21T12:41:53;3.67;;;2.10;;
28587;SDS011;15787;49.662;10.162;2022-08-21T12:44:29;5.57;;;2.00;;
28587;SDS011;15787;49.662;10.162;2022-08-21T12:47:05;4.13;;;2.03;;
28587;SDS011;15787;49.662;10.162;2022-08-21T12:49:35;4.05;;;1.83;;
28587;SDS011;15787;49.662;10.162;2022-08-21T12:52:07;4.07;;;2.03;;
28587;SDS011;15787;49.662;10.162;2022-08-21T12:54:43;3.72;;;1.70;;
28587;SDS011;15787;49.662;10.162;2022-08-21T12:57:17;5.13;;;1.90;;
28587;SDS011;15787;49.662;10.162;2022-08-21T12:59:51;3.95;;;1.60;;
28587;SDS011;15787;49.662;10.162;2022-08-21T13:02:22;6.57;;;2.00;;
28587;SDS011;15787;49.662;10.162;2022-08-21T13:04:52;3.50;;;1.73;;
28587;SDS011;15787;49.662;10.162;2022-08-21T13:07:24;3.22;;;2.00;;
28587;SDS011;15787;49.662;10.162;2022-08-21T13:09:57;2.10;;;1.42;;
28587;SDS011;15787;49.662;10.162;2022-08-21T13:12:26;3.10;;;1.70;;
28587;SDS011;15787;49.662;10.162;2022-08-21T13:14:58;3.85;;;1.48;;
28587;SDS011;15787;49.662;10.162;2022-08-21T13:17:35;6.22;;;2.03;;
28587;SDS011;15787;49.662;10.162;2022-08-21T13:20:07;3.65;;;1.77;;
28587;SDS011;15787;49.662;10.162;2022-08-21T13:22:41;4.95;;;1.80;;
28587;SDS011;15787;49.662;10.162;2022-08-21T13:25:12;2.88;;;1.88;;
28587;SDS011;15787;49.662;10.162;2022-08-21T13:27:42;2.75;;;2.13;;
28587;SDS011;15787;49.662;10.162;2022-08-21T13:30:12;8.00;;;2.33;;
28587;SDS011;15787;49.662;10.162;2022-08-21T13:32:45;4.82;;;1.85;;
28587;SDS011;15787;49.662;10.162;2022-08-21T13:35:19;3.20;;;1.92;;
28587;SDS011;15787;49.662;10.162;2022-08-21T13:37:49;5.00;;;2.30;;
28587;SDS011;15787;49.662;10.162;2022-08-21T13:40:20;2.85;;;2.13;;
28587;SDS011;15787;49.662;10.162;2022-08-21T13:42:52;3.17;;;1.95;;
28587;SDS011;15787;49.662;10.162;2022-08-21T13:45:24;4.20;;;2.13;;
28587;SDS011;15787;49.662;10.162;2022-08-21T13:47:54;4.15;;;1.80;;
28587;SDS011;15787;49.662;10.162;2022-08-21T13:50:23;3.75;;;1.90;;
28587;SDS011;15787;49.662;10.162;2022-08-21T13:52:58;6.45;;;1.92;;
28587;SDS011;15787;49.662;10.162;2022-08-21T13:55:38;4.80;;;2.13;;
28587;SDS011;15787;49.662;10.162;2022-08-21T13:58:09;4.55;;;2.00;;
28587;SDS011;15787;49.662;10.162;2022-08-21T14:00:43;4.90;;;2.00;;
28587;SDS011;15787;49.662;10.162;2022-08-21T14:03:16;3.05;;;2.00;;
28587;SDS011;15787;49.662;10.162;2022-08-21T14:05:55;5.38;;;2.22;;
28587;SDS011;15787;49.662;10.162;2022-08-21T14:08:27;2.92;;;1.90;;
28587;SDS011;15787;49.662;10.162;2022-08-21T14:11:02;3.47;;;1.73;;
28587;SDS011;15787;49.662;10.162;2022-08-21T14:13:36;3.88;;;1.90;;
28587;SDS011;15787;49.662;10.162;2022-08-21T14:18:55;4.25;;;2.03;;
28587;SDS011;15787;49.662;10.162;2022-08-21T14:21:38;3.65;;;2.35;;
28587;SDS011;15787;49.662;10.162;2022-08-21T14:24:10;2.75;;;2.05;;
28587;SDS011;15787;49.662;10.162;2022-08-21T14:26:48;5.03;;;2.13;;
28587;SDS011;15787;49.662;10.162;2022-08-21T14:29:19;5.07;;;2.15;;
28587;SDS011;15787;49.662;10.162;2022-08-21T14:31:50;4.80;;;2.00;;
28587;SDS011;15787;49.662;10.162;2022-08-21T14:34:20;6.22;;;2.38;;
28587;SDS011;15787;49.662;10.162;2022-08-21T14:36:49;4.72;;;2.33;;
28587;SDS011;15787;49.662;10.162;2022-08-21T14:39:17;3.03;;;1.92;;
28587;SDS011;15787;49.662;10.162;2022-08-21T14:41:47;3.22;;;2.35;;
28587;SDS011;15787;49.662;10.162;2022-08-21T14:44:16;3.00;;;1.85;;
28587;SDS011;15787;49.662;10.162;2022-08-21T14:46:45;3.80;;;2.15;;
28587;SDS011;15787;49.662;10.162;2022-08-21T14:49:21;4.38;;;1.83;;
28587;SDS011;15787;49.662;10.162;2022-08-21T14:51:50;4.30;;;1.80;;
28587;SDS011;15787;49.662;10.162;2022-08-21T14:54:23;3.28;;;2.17;;
28587;SDS011;15787;49.662;10.162;2022-08-21T14:56:59;4.90;;;2.35;;
28587;SDS011;15787;49.662;10.162;2022-08-21T14:59:30;4.15;;;2.03;;
28587;SDS011;15787;49.662;10.162;2022-08-21T15:01:59;4.40;;;1.92;;
28587;SDS011;15787;49.662;10.162;2022-08-21T15:04:29;5.32;;;2.15;;
28587;SDS011;15787;49.662;10.162;2022-08-21T15:06:58;4.40;;;2.13;;
28587;SDS011;15787;49.662;10.162;2022-08-21T15:09:26;4.00;;;2.00;;
28587;SDS011;15787;49.662;10.162;2022-08-21T15:11:55;4.07;;;1.83;;
28587;SDS011;15787;49.662;10.162;2022-08-21T15:14:27;4.13;;;2.17;;
28587;SDS011;15787;49.662;10.162;2022-08-21T15:16:57;5.25;;;2.50;;